sensor_id;sensor_type;location;lat;lon;timestamp;temperature;humidity
27200;DHT22;14714;48.106;11.546;2023-04-25T00:00:20;7.90;99.90
27200;DHT22;14714;48.106;11.546;2023-04-25T00:02:47;8.00;99.90
27200;DHT22;14714;48.106;11.546;2023-04-25T00:05:14;8.00;99.90
27200;DHT22;14714;48.106;11.546;2023-04-25T00:07:43;8.10;99.90
27200;DHT22;14714;48.106;11.546;2023-04-25T00:10:10;8.10;99.90
27200;DHT22;14714;48.106;11.546;2023-04-25T00:12:38;8.10;99.90
27200;DHT22;14714;48.106;11.546;2023-04-25T00:15:06;8.20;99.90
27200;DHT22;14714;48.106;11.546;2023-04-25T00:17:33;8.20;99.90
27200;DHT22;14714;48.106;11.546;2023-04-25T00:20:01;8.20;99.90
27200;DHT22;14714;48.106;11.546;2023-04-25T00:22:32;8.20;99.90
27200;DHT22;14714;48.106;11.546;2023-04-25T00:25:00;8.20;99.90
27200;DHT22;14714;48.106;11.546;2023-04-25T00:27:26;8.30;99.90
27200;DHT22;14714;48.106;11.546;2023-04-25T00:29:53;8.30;99.90
27200;DHT22;14714;48.106;11.546;2023-04-25T00:32:20;8.40;99.90
27200;DHT22;14714;48.106;11.546;2023-04-25T00:34:47;8.40;99.90
27200;DHT22;14714;48.106;11.546;2023-04-25T00:37:13;8.40;99.90
27200;DHT22;14714;48.106;11.546;2023-04-25T00:39:40;8.40;99.90
27200;DHT22;14714;48.106;11.546;2023-04-25T00:42:08;8.40;99.90
27200;DHT22;14714;48.106;11.546;2023-04-25T00:44:35;8.40;99.90
27200;DHT22;14714;48.106;11.546;2023-04-25T00:47:03;8.30;99.90
27200;DHT22;14714;48.106;11.546;2023-04-25T00:49:30;8.30;99.90
27200;DHT22;14714;48.106;11.546;2023-04-25T00:51:57;8.20;99.90
27200;DHT22;14714;48.106;11.546;2023-04-25T00:54:24;8.20;99.90
27200;DHT22;14714;48.106;11.546;2023-04-25T00:56:52;8.20;99.90
27200;DHT22;14714;48.106;11.546;2023-04-25T00:59:20;8.10;99.90
27200;DHT22;14714;48.106;11.546;2023-04-25T01:01:47;8.10;99.90
27200;DHT22;14714;48.106;11.546;2023-04-25T01:04:14;8.10;99.90
27200;DHT22;14714;48.106;11.546;2023-04-25T01:06:41;8.10;99.90
27200;DHT22;14714;48.106;11.546;2023-04-25T01:09:08;8.00;99.90
27200;DHT22;14714;48.106;11.546;2023-04-25T01:11:36;7.90;99.90
27200;DHT22;14714;48.106;11.546;2023-04-25T01:14:02;7.90;99.90
27200;DHT22;14714;48.106;11.546;2023-04-25T01:16:30;7.90;99.90
27200;DHT22;14714;48.106;11.546;2023-04-25T01:18:57;7.90;99.90
27200;DHT22;14714;48.106;11.546;2023-04-25T01:21:24;7.90;99.90
27200;DHT22;14714;48.106;11.546;2023-04-25T01:23:54;7.90;99.90
27200;DHT22;14714;48.106;11.546;2023-04-25T01:26:21;7.90;99.90
27200;DHT22;14714;48.106;11.546;2023-04-25T01:28:49;7.90;99.90
27200;DHT22;14714;48.106;11.546;2023-04-25T01:31:17;7.90;99.90
27200;DHT22;14714;48.106;11.546;2023-04-25T01:33:45;7.90;99.90
27200;DHT22;14714;48.106;11.546;2023-04-25T01:36:12;7.90;99.90
27200;DHT22;14714;48.106;11.546;2023-04-25T01:38:39;7.90;99.90
27200;DHT22;14714;48.106;11.546;2023-04-25T01:41:07;7.90;99.90
27200;DHT22;14714;48.106;11.546;2023-04-25T01:43:33;7.80;99.90
27200;DHT22;14714;48.106;11.546;2023-04-25T01:46:00;7.80;99.90
27200;DHT22;14714;48.106;11.546;2023-04-25T01:48:27;7.80;99.90
27200;DHT22;14714;48.106;11.546;2023-04-25T01:50:54;7.70;99.90
27200;DHT22;14714;48.106;11.546;2023-04-25T01:53:21;7.70;99.90
27200;DHT22;14714;48.106;11.546;2023-04-25T01:55:49;7.60;99.90
27200;DHT22;14714;48.106;11.546;2023-04-25T01:58:16;7.60;99.90
27200;DHT22;14714;48.106;11.546;2023-04-25T02:00:42;7.50;99.90
27200;DHT22;14714;48.106;11.546;2023-04-25T02:03:09;7.50;99.90
27200;DHT22;14714;48.106;11.546;2023-04-25T02:05:40;7.40;99.90
27200;DHT22;14714;48.106;11.546;2023-04-25T02:08:07;7.30;99.90
27200;DHT22;14714;48.106;11.546;2023-04-25T02:10:35;7.30;99.90
27200;DHT22;14714;48.106;11.546;2023-04-25T02:13:02;7.20;99.90
27200;DHT22;14714;48.106;11.546;2023-04-25T02:15:30;7.20;99.90
27200;DHT22;14714;48.106;11.546;2023-04-25T02:17:57;7.20;99.90
27200;DHT22;14714;48.106;11.546;2023-04-25T02:20:24;7.10;99.90
27200;DHT22;14714;48.106;11.546;2023-04-25T02:22:52;7.10;99.90
27200;DHT22;14714;48.106;11.546;2023-04-25T02:25:19;7.10;99.90
27200;DHT22;14714;48.106;11.546;2023-04-25T02:27:47;7.10;99.90
27200;DHT22;14714;48.106;11.546;2023-04-25T02:30:14;7.10;99.90
27200;DHT22;14714;48.106;11.546;2023-04-25T02:32:41;7.10;99.90
27200;DHT22;14714;48.106;11.546;2023-04-25T02:35:08;7.10;99.90
27200;DHT22;14714;48.106;11.546;2023-04-25T02:37:37;7.20;99.90
27200;DHT22;14714;48.106;11.546;2023-04-25T02:40:05;7.30;99.90
27200;DHT22;14714;48.106;11.546;2023-04-25T02:42:32;7.30;99.90
27200;DHT22;14714;48.106;11.546;2023-04-25T02:44:59;7.30;99.90
27200;DHT22;14714;48.106;11.546;2023-04-25T02:47:26;7.40;99.90
27200;DHT22;14714;48.106;11.546;2023-04-25T02:49:52;7.40;99.90
27200;DHT22;14714;48.106;11.546;2023-04-25T02:52:19;7.40;99.90
27200;DHT22;14714;48.106;11.546;2023-04-25T02:54:47;7.40;99.90
27200;DHT22;14714;48.106;11.546;2023-04-25T02:57:14;7.50;99.90
27200;DHT22;14714;48.106;11.546;2023-04-25T02:59:41;7.50;99.90
27200;DHT22;14714;48.106;11.546;2023-04-25T03:02:08;7.50;99.90
27200;DHT22;14714;48.106;11.546;2023-04-25T03:04:34;7.60;99.90
27200;DHT22;14714;48.106;11.546;2023-04-25T03:07:01;7.60;99.90
27200;DHT22;14714;48.106;11.546;2023-04-25T03:09:28;7.70;99.90
27200;DHT22;14714;48.106;11.546;2023-04-25T03:11:55;7.70;99.90
27200;DHT22;14714;48.106;11.546;2023-04-25T03:14:22;7.70;99.90
27200;DHT22;14714;48.106;11.546;2023-04-25T03:16:49;7.80;99.90
27200;DHT22;14714;48.106;11.546;2023-04-25T03:19:15;7.80;99.90
27200;DHT22;14714;48.106;11.546;2023-04-25T03:21:44;7.80;99.90
27200;DHT22;14714;48.106;11.546;2023-04-25T03:24:11;7.80;99.90
27200;DHT22;14714;48.106;11.546;2023-04-25T03:26:38;7.80;99.90
27200;DHT22;14714;48.106;11.546;2023-04-25T03:29:05;7.80;99.90
27200;DHT22;14714;48.106;11.546;2023-04-25T03:31:31;7.80;99.90
27200;DHT22;14714;48.106;11.546;2023-04-25T03:33:58;7.80;99.90
27200;DHT22;14714;48.106;11.546;2023-04-25T03:36:25;7.80;99.90
27200;DHT22;14714;48.106;11.546;2023-04-25T03:38:52;7.70;99.90
27200;DHT22;14714;48.106;11.546;2023-04-25T03:41:18;7.70;99.90
27200;DHT22;14714;48.106;11.546;2023-04-25T03:43:45;7.70;99.90
27200;DHT22;14714;48.106;11.546;2023-04-25T03:46:12;7.60;99.90
27200;DHT22;14714;48.106;11.546;2023-04-25T03:48:39;7.60;99.90
27200;DHT22;14714;48.106;11.546;2023-04-25T03:51:06;7.50;99.90
27200;DHT22;14714;48.106;11.546;2023-04-25T03:53:32;7.50;99.90
27200;DHT22;14714;48.106;11.546;2023-04-25T03:55:59;7.40;99.90
27200;DHT22;14714;48.106;11.546;2023-04-25T03:58:26;7.40;99.90
27200;DHT22;14714;48.106;11.546;2023-04-25T04:00:53;7.30;99.90
27200;DHT22;14714;48.106;11.546;2023-04-25T04:03:19;7.30;99.90
27200;DHT22;14714;48.106;11.546;2023-04-25T04:05:47;7.20;99.90
27200;DHT22;14714;48.106;11.546;2023-04-25T04:08:14;7.20;99.90
27200;DHT22;14714;48.106;11.546;2023-04-25T04:10:41;7.20;99.90
27200;DHT22;14714;48.106;11.546;2023-04-25T04:13:08;7.20;99.90
27200;DHT22;14714;48.106;11.546;2023-04-25T04:15:34;7.20;99.90
27200;DHT22;14714;48.106;11.546;2023-04-25T04:18:01;7.20;99.90
27200;DHT22;14714;48.106;11.546;2023-04-25T04:20:29;7.20;99.90
27200;DHT22;14714;48.106;11.546;2023-04-25T04:22:59;7.20;99.90
27200;DHT22;14714;48.106;11.546;2023-04-25T04:25:26;7.10;99.90
27200;DHT22;14714;48.106;11.546;2023-04-25T04:27:52;7.10;99.90
27200;DHT22;14714;48.106;11.546;2023-04-25T04:30:23;7.10;99.90
27200;DHT22;14714;48.106;11.546;2023-04-25T04:32:56;7.10;99.90
27200;DHT22;14714;48.106;11.546;2023-04-25T04:35:23;7.10;99.90
27200;DHT22;14714;48.106;11.546;2023-04-25T04:37:51;7.10;99.90
27200;DHT22;14714;48.106;11.546;2023-04-25T04:40:18;7.10;99.90
27200;DHT22;14714;48.106;11.546;2023-04-25T04:42:45;7.10;99.90
27200;DHT22;14714;48.106;11.546;2023-04-25T04:45:12;7.20;99.90
27200;DHT22;14714;48.106;11.546;2023-04-25T04:47:39;7.20;99.90
27200;DHT22;14714;48.106;11.546;2023-04-25T04:50:08;7.20;99.90
27200;DHT22;14714;48.106;11.546;2023-04-25T04:52:36;7.20;99.90
27200;DHT22;14714;48.106;11.546;2023-04-25T04:55:04;7.20;99.90
27200;DHT22;14714;48.106;11.546;2023-04-25T04:57:32;7.20;99.90
27200;DHT22;14714;48.106;11.546;2023-04-25T04:59:59;7.30;99.90
27200;DHT22;14714;48.106;11.546;2023-04-25T05:02:26;7.30;99.90
27200;DHT22;14714;48.106;11.546;2023-04-25T05:04:54;7.30;99.90
27200;DHT22;14714;48.106;11.546;2023-04-25T05:07:20;7.40;99.90
27200;DHT22;14714;48.106;11.546;2023-04-25T05:09:47;7.50;99.90
27200;DHT22;14714;48.106;11.546;2023-04-25T05:12:14;7.50;99.90
27200;DHT22;14714;48.106;11.546;2023-04-25T05:14:41;7.50;99.90
27200;DHT22;14714;48.106;11.546;2023-04-25T05:17:08;7.60;99.90
27200;DHT22;14714;48.106;11.546;2023-04-25T05:19:35;7.50;99.90
27200;DHT22;14714;48.106;11.546;2023-04-25T05:22:02;7.50;99.90
27200;DHT22;14714;48.106;11.546;2023-04-25T05:24:29;7.60;99.90
27200;DHT22;14714;48.106;11.546;2023-04-25T05:26:57;7.50;99.90
27200;DHT22;14714;48.106;11.546;2023-04-25T05:29:24;7.60;99.90
27200;DHT22;14714;48.106;11.546;2023-04-25T05:31:50;7.60;99.90
27200;DHT22;14714;48.106;11.546;2023-04-25T05:34:17;7.60;99.90
27200;DHT22;14714;48.106;11.546;2023-04-25T05:36:44;7.60;99.90
27200;DHT22;14714;48.106;11.546;2023-04-25T05:39:11;7.70;99.90
27200;DHT22;14714;48.106;11.546;2023-04-25T05:41:37;7.70;99.90
27200;DHT22;14714;48.106;11.546;2023-04-25T05:44:04;7.80;99.90
27200;DHT22;14714;48.106;11.546;2023-04-25T05:46:31;7.90;99.90
27200;DHT22;14714;48.106;11.546;2023-04-25T05:48:58;8.10;99.90
27200;DHT22;14714;48.106;11.546;2023-04-25T05:51:25;8.20;99.90
27200;DHT22;14714;48.106;11.546;2023-04-25T05:53:52;8.50;99.90
27200;DHT22;14714;48.106;11.546;2023-04-25T05:56:19;8.80;99.90
27200;DHT22;14714;48.106;11.546;2023-04-25T05:58:46;9.00;99.90
27200;DHT22;14714;48.106;11.546;2023-04-25T06:01:13;9.10;99.90
27200;DHT22;14714;48.106;11.546;2023-04-25T06:03:40;9.00;99.90
27200;DHT22;14714;48.106;11.546;2023-04-25T06:06:09;8.80;99.90
27200;DHT22;14714;48.106;11.546;2023-04-25T06:08:36;8.70;99.90
27200;DHT22;14714;48.106;11.546;2023-04-25T06:11:04;8.50;99.90
27200;DHT22;14714;48.106;11.546;2023-04-25T06:13:31;8.30;99.90
27200;DHT22;14714;48.106;11.546;2023-04-25T06:15:58;8.10;99.90
27200;DHT22;14714;48.106;11.546;2023-04-25T06:18:24;7.90;99.90
27200;DHT22;14714;48.106;11.546;2023-04-25T06:20:51;7.70;99.90
27200;DHT22;14714;48.106;11.546;2023-04-25T06:23:18;7.60;99.90
27200;DHT22;14714;48.106;11.546;2023-04-25T06:25:45;7.50;99.90
27200;DHT22;14714;48.106;11.546;2023-04-25T06:28:11;7.40;99.90
27200;DHT22;14714;48.106;11.546;2023-04-25T06:30:38;7.30;99.90
27200;DHT22;14714;48.106;11.546;2023-04-25T06:33:05;7.30;99.90
27200;DHT22;14714;48.106;11.546;2023-04-25T06:35:32;7.30;99.90
27200;DHT22;14714;48.106;11.546;2023-04-25T06:37:59;7.40;99.90
27200;DHT22;14714;48.106;11.546;2023-04-25T06:40:26;7.50;99.90
27200;DHT22;14714;48.106;11.546;2023-04-25T06:42:53;7.80;99.90
27200;DHT22;14714;48.106;11.546;2023-04-25T06:45:19;8.20;99.90
27200;DHT22;14714;48.106;11.546;2023-04-25T06:47:46;8.40;99.90
27200;DHT22;14714;48.106;11.546;2023-04-25T06:50:13;8.70;99.90
27200;DHT22;14714;48.106;11.546;2023-04-25T06:52:40;9.00;99.90
27200;DHT22;14714;48.106;11.546;2023-04-25T06:55:07;9.40;99.90
27200;DHT22;14714;48.106;11.546;2023-04-25T06:57:34;10.10;99.90
27200;DHT22;14714;48.106;11.546;2023-04-25T07:00:00;11.20;99.90
27200;DHT22;14714;48.106;11.546;2023-04-25T07:02:28;12.20;99.90
27200;DHT22;14714;48.106;11.546;2023-04-25T07:04:55;12.50;99.90
27200;DHT22;14714;48.106;11.546;2023-04-25T07:07:26;12.30;99.90
27200;DHT22;14714;48.106;11.546;2023-04-25T07:09:53;11.80;99.90
27200;DHT22;14714;48.106;11.546;2023-04-25T07:12:20;11.40;99.90
27200;DHT22;14714;48.106;11.546;2023-04-25T07:14:46;11.00;99.90
27200;DHT22;14714;48.106;11.546;2023-04-25T07:17:13;10.60;99.90
27200;DHT22;14714;48.106;11.546;2023-04-25T07:19:40;10.30;99.90
27200;DHT22;14714;48.106;11.546;2023-04-25T07:22:07;10.10;99.90
27200;DHT22;14714;48.106;11.546;2023-04-25T07:24:33;10.00;99.90
27200;DHT22;14714;48.106;11.546;2023-04-25T07:27:00;10.00;99.90
27200;DHT22;14714;48.106;11.546;2023-04-25T07:29:27;10.00;99.90
27200;DHT22;14714;48.106;11.546;2023-04-25T07:31:54;10.10;99.90
27200;DHT22;14714;48.106;11.546;2023-04-25T07:34:21;10.20;99.90
27200;DHT22;14714;48.106;11.546;2023-04-25T07:36:48;10.40;99.90
27200;DHT22;14714;48.106;11.546;2023-04-25T07:39:15;10.70;99.90
27200;DHT22;14714;48.106;11.546;2023-04-25T07:41:41;11.10;99.90
27200;DHT22;14714;48.106;11.546;2023-04-25T07:44:08;11.80;99.90
27200;DHT22;14714;48.106;11.546;2023-04-25T07:46:35;13.10;99.90
27200;DHT22;14714;48.106;11.546;2023-04-25T07:49:01;14.90;99.90
27200;DHT22;14714;48.106;11.546;2023-04-25T07:51:28;17.30;99.90
27200;DHT22;14714;48.106;11.546;2023-04-25T07:53:55;19.70;99.90
27200;DHT22;14714;48.106;11.546;2023-04-25T07:56:22;21.90;90.50
27200;DHT22;14714;48.106;11.546;2023-04-25T07:58:49;23.90;77.40
27200;DHT22;14714;48.106;11.546;2023-04-25T08:01:16;25.50;62.10
27200;DHT22;14714;48.106;11.546;2023-04-25T08:03:43;26.50;54.80
27200;DHT22;14714;48.106;11.546;2023-04-25T08:06:10;27.40;52.20
27200;DHT22;14714;48.106;11.546;2023-04-25T08:08:38;28.50;47.90
27200;DHT22;14714;48.106;11.546;2023-04-25T08:11:04;29.30;45.50
27200;DHT22;14714;48.106;11.546;2023-04-25T08:13:31;29.30;42.10
27200;DHT22;14714;48.106;11.546;2023-04-25T08:15:58;27.70;42.50
27200;DHT22;14714;48.106;11.546;2023-04-25T08:18:25;26.20;46.20
27200;DHT22;14714;48.106;11.546;2023-04-25T08:20:52;26.20;48.00
27200;DHT22;14714;48.106;11.546;2023-04-25T08:23:18;26.20;43.70
27200;DHT22;14714;48.106;11.546;2023-04-25T08:25:45;25.10;45.10
27200;DHT22;14714;48.106;11.546;2023-04-25T08:28:12;23.40;48.40
27200;DHT22;14714;48.106;11.546;2023-04-25T08:30:39;21.70;51.80
27200;DHT22;14714;48.106;11.546;2023-04-25T08:33:05;20.40;54.10
27200;DHT22;14714;48.106;11.546;2023-04-25T08:35:33;19.10;55.50
27200;DHT22;14714;48.106;11.546;2023-04-25T08:38:00;17.90;58.80
27200;DHT22;14714;48.106;11.546;2023-04-25T08:40:28;16.90;63.70
27200;DHT22;14714;48.106;11.546;2023-04-25T08:42:57;16.30;65.50
27200;DHT22;14714;48.106;11.546;2023-04-25T08:45:27;16.10;72.30
27200;DHT22;14714;48.106;11.546;2023-04-25T08:47:55;17.30;73.00
27200;DHT22;14714;48.106;11.546;2023-04-25T08:50:23;19.10;64.20
27200;DHT22;14714;48.106;11.546;2023-04-25T08:52:53;20.90;60.30
27200;DHT22;14714;48.106;11.546;2023-04-25T08:55:21;22.30;54.30
27200;DHT22;14714;48.106;11.546;2023-04-25T08:57:49;23.10;54.00
27200;DHT22;14714;48.106;11.546;2023-04-25T09:00:17;24.20;50.10
27200;DHT22;14714;48.106;11.546;2023-04-25T09:02:45;24.90;45.90
27200;DHT22;14714;48.106;11.546;2023-04-25T09:05:14;25.20;47.60
27200;DHT22;14714;48.106;11.546;2023-04-25T09:07:41;25.90;43.70
27200;DHT22;14714;48.106;11.546;2023-04-25T09:10:08;26.60;43.40
27200;DHT22;14714;48.106;11.546;2023-04-25T09:12:35;27.00;40.80
27200;DHT22;14714;48.106;11.546;2023-04-25T09:15:12;26.80;39.40
27200;DHT22;14714;48.106;11.546;2023-04-25T09:17:58;25.40;40.80
27200;DHT22;14714;48.106;11.546;2023-04-25T09:20:25;24.60;42.90
27200;DHT22;14714;48.106;11.546;2023-04-25T09:23:05;24.60;41.80
27200;DHT22;14714;48.106;11.546;2023-04-25T09:25:37;25.00;43.80
27200;DHT22;14714;48.106;11.546;2023-04-25T09:28:06;25.70;43.30
27200;DHT22;14714;48.106;11.546;2023-04-25T09:30:35;26.50;40.10
27200;DHT22;14714;48.106;11.546;2023-04-25T09:33:11;27.10;41.10
27200;DHT22;14714;48.106;11.546;2023-04-25T09:35:43;27.20;37.40
27200;DHT22;14714;48.106;11.546;2023-04-25T09:38:14;26.50;37.10
27200;DHT22;14714;48.106;11.546;2023-04-25T09:40:42;24.90;37.80
27200;DHT22;14714;48.106;11.546;2023-04-25T09:43:21;23.10;42.40
27200;DHT22;14714;48.106;11.546;2023-04-25T09:45:48;21.40;44.30
27200;DHT22;14714;48.106;11.546;2023-04-25T09:48:20;20.10;50.30
27200;DHT22;14714;48.106;11.546;2023-04-25T09:51:06;19.30;49.60
27200;DHT22;14714;48.106;11.546;2023-04-25T09:53:38;18.60;50.90
27200;DHT22;14714;48.106;11.546;2023-04-25T09:56:07;18.00;52.50
27200;DHT22;14714;48.106;11.546;2023-04-25T09:58:35;17.50;53.50
27200;DHT22;14714;48.106;11.546;2023-04-25T10:01:05;17.20;55.40
27200;DHT22;14714;48.106;11.546;2023-04-25T10:03:34;16.80;56.10
27200;DHT22;14714;48.106;11.546;2023-04-25T10:06:05;16.50;57.10
27200;DHT22;14714;48.106;11.546;2023-04-25T10:08:36;16.10;57.50
27200;DHT22;14714;48.106;11.546;2023-04-25T10:11:05;15.70;59.00
27200;DHT22;14714;48.106;11.546;2023-04-25T10:13:32;15.40;61.20
27200;DHT22;14714;48.106;11.546;2023-04-25T10:16:01;15.30;62.20
27200;DHT22;14714;48.106;11.546;2023-04-25T10:18:29;15.40;63.40
27200;DHT22;14714;48.106;11.546;2023-04-25T10:20:59;15.90;65.50
27200;DHT22;14714;48.106;11.546;2023-04-25T10:23:27;16.90;62.60
27200;DHT22;14714;48.106;11.546;2023-04-25T10:25:56;18.20;58.90
27200;DHT22;14714;48.106;11.546;2023-04-25T10:28:23;19.10;54.90
27200;DHT22;14714;48.106;11.546;2023-04-25T10:31:07;19.70;53.70
27200;DHT22;14714;48.106;11.546;2023-04-25T10:33:43;19.80;52.50
27200;DHT22;14714;48.106;11.546;2023-04-25T10:36:14;19.40;51.10
27200;DHT22;14714;48.106;11.546;2023-04-25T10:38:45;18.60;52.20
27200;DHT22;14714;48.106;11.546;2023-04-25T10:41:13;17.50;54.60
27200;DHT22;14714;48.106;11.546;2023-04-25T10:43:44;16.60;57.50
27200;DHT22;14714;48.106;11.546;2023-04-25T10:46:15;15.60;57.30
27200;DHT22;14714;48.106;11.546;2023-04-25T10:48:51;14.90;60.30
27200;DHT22;14714;48.106;11.546;2023-04-25T10:51:29;14.30;63.10
27200;DHT22;14714;48.106;11.546;2023-04-25T10:54:09;13.80;68.10
27200;DHT22;14714;48.106;11.546;2023-04-25T11:01:44;13.10;75.40
27200;DHT22;14714;48.106;11.546;2023-04-25T11:04:29;12.90;77.30
27200;DHT22;14714;48.106;11.546;2023-04-25T11:09:49;12.90;77.70
27200;DHT22;14714;48.106;11.546;2023-04-25T11:12:16;12.90;78.20
27200;DHT22;14714;48.106;11.546;2023-04-25T11:14:44;13.10;78.00
27200;DHT22;14714;48.106;11.546;2023-04-25T11:17:10;13.40;78.90
27200;DHT22;14714;48.106;11.546;2023-04-25T11:19:38;13.70;76.80
27200;DHT22;14714;48.106;11.546;2023-04-25T11:22:05;13.90;72.40
27200;DHT22;14714;48.106;11.546;2023-04-25T11:24:34;13.90;70.50
27200;DHT22;14714;48.106;11.546;2023-04-25T11:27:05;13.80;69.40
27200;DHT22;14714;48.106;11.546;2023-04-25T11:29:35;13.60;71.90
27200;DHT22;14714;48.106;11.546;2023-04-25T11:32:02;13.40;71.60
27200;DHT22;14714;48.106;11.546;2023-04-25T11:34:30;13.00;73.10
27200;DHT22;14714;48.106;11.546;2023-04-25T11:36:57;12.70;75.30
27200;DHT22;14714;48.106;11.546;2023-04-25T11:39:25;12.60;77.40
27200;DHT22;14714;48.106;11.546;2023-04-25T11:41:53;12.60;78.10
27200;DHT22;14714;48.106;11.546;2023-04-25T11:44:20;12.60;77.90
27200;DHT22;14714;48.106;11.546;2023-04-25T11:46:48;12.60;78.70
27200;DHT22;14714;48.106;11.546;2023-04-25T11:49:15;12.50;82.50
27200;DHT22;14714;48.106;11.546;2023-04-25T11:51:46;12.30;84.80
27200;DHT22;14714;48.106;11.546;2023-04-25T11:54:14;12.10;86.20
27200;DHT22;14714;48.106;11.546;2023-04-25T11:56:42;11.90;87.30
27200;DHT22;14714;48.106;11.546;2023-04-25T11:59:09;11.70;89.30
27200;DHT22;14714;48.106;11.546;2023-04-25T12:01:39;11.40;89.90
27200;DHT22;14714;48.106;11.546;2023-04-25T12:04:18;11.20;90.80
27200;DHT22;14714;48.106;11.546;2023-04-25T12:06:46;11.10;91.70
27200;DHT22;14714;48.106;11.546;2023-04-25T12:09:31;10.90;92.50
27200;DHT22;14714;48.106;11.546;2023-04-25T12:11:59;10.90;93.40
27200;DHT22;14714;48.106;11.546;2023-04-25T12:14:34;10.90;93.30
27200;DHT22;14714;48.106;11.546;2023-04-25T12:17:03;10.80;94.40
27200;DHT22;14714;48.106;11.546;2023-04-25T12:19:35;10.60;95.70
27200;DHT22;14714;48.106;11.546;2023-04-25T12:22:03;10.70;96.80
27200;DHT22;14714;48.106;11.546;2023-04-25T12:24:33;10.60;97.50
27200;DHT22;14714;48.106;11.546;2023-04-25T12:27:07;10.60;98.30
27200;DHT22;14714;48.106;11.546;2023-04-25T12:29:37;10.50;99.90
27200;DHT22;14714;48.106;11.546;2023-04-25T12:32:15;10.50;99.90
27200;DHT22;14714;48.106;11.546;2023-04-25T12:34:42;10.60;99.90
27200;DHT22;14714;48.106;11.546;2023-04-25T12:37:09;10.60;99.90
27200;DHT22;14714;48.106;11.546;2023-04-25T12:39:36;10.60;99.90
27200;DHT22;14714;48.106;11.546;2023-04-25T12:42:03;10.70;99.90
27200;DHT22;14714;48.106;11.546;2023-04-25T12:44:34;10.80;99.90
27200;DHT22;14714;48.106;11.546;2023-04-25T12:47:02;10.90;99.90
27200;DHT22;14714;48.106;11.546;2023-04-25T12:49:30;10.90;99.90
27200;DHT22;14714;48.106;11.546;2023-04-25T12:51:57;10.90;99.90
27200;DHT22;14714;48.106;11.546;2023-04-25T12:54:24;11.00;99.90
27200;DHT22;14714;48.106;11.546;2023-04-25T12:56:52;11.10;99.90
27200;DHT22;14714;48.106;11.546;2023-04-25T12:59:19;11.10;99.90
27200;DHT22;14714;48.106;11.546;2023-04-25T13:01:47;11.10;99.90
27200;DHT22;14714;48.106;11.546;2023-04-25T13:04:13;11.10;99.90
27200;DHT22;14714;48.106;11.546;2023-04-25T13:06:41;11.10;99.90
27200;DHT22;14714;48.106;11.546;2023-04-25T13:09:08;11.10;99.90
27200;DHT22;14714;48.106;11.546;2023-04-25T13:11:35;11.10;99.90
27200;DHT22;14714;48.106;11.546;2023-04-25T13:14:02;11.00;99.90
27200;DHT22;14714;48.106;11.546;2023-04-25T13:16:29;10.90;99.90
27200;DHT22;14714;48.106;11.546;2023-04-25T13:18:56;11.00;99.90
27200;DHT22;14714;48.106;11.546;2023-04-25T13:21:23;11.00;99.90
27200;DHT22;14714;48.106;11.546;2023-04-25T13:23:50;11.00;99.90
27200;DHT22;14714;48.106;11.546;2023-04-25T13:26:17;11.00;99.90
27200;DHT22;14714;48.106;11.546;2023-04-25T13:28:44;10.90;99.90
27200;DHT22;14714;48.106;11.546;2023-04-25T13:31:11;10.90;99.90
27200;DHT22;14714;48.106;11.546;2023-04-25T13:33:38;10.80;99.90
27200;DHT22;14714;48.106;11.546;2023-04-25T13:36:04;10.70;99.90
27200;DHT22;14714;48.106;11.546;2023-04-25T13:38:32;10.80;99.90
27200;DHT22;14714;48.106;11.546;2023-04-25T13:40:59;11.00;99.90
27200;DHT22;14714;48.106;11.546;2023-04-25T13:43:27;11.10;99.90
27200;DHT22;14714;48.106;11.546;2023-04-25T13:45:54;11.20;99.90
27200;DHT22;14714;48.106;11.546;2023-04-25T13:48:21;11.00;99.90
27200;DHT22;14714;48.106;11.546;2023-04-25T13:50:49;10.90;99.90
27200;DHT22;14714;48.106;11.546;2023-04-25T13:53:15;10.60;99.90
27200;DHT22;14714;48.106;11.546;2023-04-25T13:55:42;10.40;99.90
27200;DHT22;14714;48.106;11.546;2023-04-25T13:58:09;10.20;99.90
27200;DHT22;14714;48.106;11.546;2023-04-25T14:00:38;10.20;99.90
27200;DHT22;14714;48.106;11.546;2023-04-25T14:03:06;10.10;99.90
27200;DHT22;14714;48.106;11.546;2023-04-25T14:05:35;10.20;99.90
27200;DHT22;14714;48.106;11.546;2023-04-25T14:08:07;10.20;99.90
27200;DHT22;14714;48.106;11.546;2023-04-25T14:10:35;10.30;99.90
27200;DHT22;14714;48.106;11.546;2023-04-25T14:13:02;10.40;99.90
27200;DHT22;14714;48.106;11.546;2023-04-25T14:15:33;10.30;99.90
27200;DHT22;14714;48.106;11.546;2023-04-25T14:18:01;10.20;99.90
27200;DHT22;14714;48.106;11.546;2023-04-25T14:20:28;10.20;99.90
27200;DHT22;14714;48.106;11.546;2023-04-25T14:22:55;10.10;99.90
27200;DHT22;14714;48.106;11.546;2023-04-25T14:25:24;10.10;99.90
27200;DHT22;14714;48.106;11.546;2023-04-25T14:27:52;9.90;99.90
27200;DHT22;14714;48.106;11.546;2023-04-25T14:30:20;10.00;99.90
27200;DHT22;14714;48.106;11.546;2023-04-25T14:32:48;10.10;99.90
27200;DHT22;14714;48.106;11.546;2023-04-25T14:35:16;10.30;99.90
27200;DHT22;14714;48.106;11.546;2023-04-25T14:37:43;10.50;99.90
27200;DHT22;14714;48.106;11.546;2023-04-25T14:40:10;10.70;99.90
27200;DHT22;14714;48.106;11.546;2023-04-25T14:42:37;10.90;99.90
27200;DHT22;14714;48.106;11.546;2023-04-25T14:45:07;11.00;99.90
27200;DHT22;14714;48.106;11.546;2023-04-25T14:47:38;11.00;99.90
27200;DHT22;14714;48.106;11.546;2023-04-25T14:50:06;11.00;99.90
27200;DHT22;14714;48.106;11.546;2023-04-25T14:52:33;11.10;99.90
27200;DHT22;14714;48.106;11.546;2023-04-25T14:55:00;11.10;99.90
27200;DHT22;14714;48.106;11.546;2023-04-25T14:57:32;11.00;99.90
27200;DHT22;14714;48.106;11.546;2023-04-25T14:59:59;10.90;99.90
27200;DHT22;14714;48.106;11.546;2023-04-25T15:02:26;11.00;99.90
27200;DHT22;14714;48.106;11.546;2023-04-25T15:04:54;11.00;99.90
27200;DHT22;14714;48.106;11.546;2023-04-25T15:07:22;10.90;99.90
27200;DHT22;14714;48.106;11.546;2023-04-25T15:09:49;10.80;99.90
27200;DHT22;14714;48.106;11.546;2023-04-25T15:12:16;10.80;99.90
27200;DHT22;14714;48.106;11.546;2023-04-25T15:14:42;10.70;99.90
27200;DHT22;14714;48.106;11.546;2023-04-25T15:17:09;10.50;99.90
27200;DHT22;14714;48.106;11.546;2023-04-25T15:19:36;10.40;99.90
27200;DHT22;14714;48.106;11.546;2023-04-25T15:22:03;10.20;99.90
27200;DHT22;14714;48.106;11.546;2023-04-25T15:24:30;10.10;99.90
27200;DHT22;14714;48.106;11.546;2023-04-25T15:26:57;10.10;99.90
27200;DHT22;14714;48.106;11.546;2023-04-25T15:29:24;10.10;99.90
27200;DHT22;14714;48.106;11.546;2023-04-25T15:31:52;10.10;99.90
27200;DHT22;14714;48.106;11.546;2023-04-25T15:34:19;10.20;99.90